| time (UTC) | temp F | wind direction | speed MPH | gust MPH | rain 1hr in | rain 24hr in | rain mn in | humidity % | barometer mb |
| 20260504201502 | 53 | 336 | 2.0 | 7.0 | 0.00 | 0.00 | 0.00 | 30 | 1007.5 |
| 20260504200002 | 55 | 330 | 3.0 | 7.0 | 0.00 | 0.00 | 0.00 | 28 | 1007.6 |
| 20260504194504 | 55 | 305 | 0.0 | 3.0 | 0.00 | 0.00 | 0.00 | 31 | 1007.7 |
| 20260504193011 | 56 | 262 | 3.0 | 8.0 | 0.00 | 0.00 | 0.00 | 28 | 1007.7 |
| 20260504191501 | 56 | 343 | 0.0 | 3.0 | 0.00 | 0.00 | 0.00 | 25 | 1007.8 |
| 20260504190128 | 55 | 338 | 0.0 | 6.0 | 0.00 | 0.00 | 0.00 | 27 | 1008.0 |
| 20260504184653 | 55 | 334 | 0.0 | 4.0 | 0.00 | 0.00 | 0.00 | 29 | 1008.1 |
| 20260504183053 | 53 | 130 | 0.0 | 6.0 | 0.00 | 0.00 | 0.00 | 28 | 1008.2 |
| 20260504181556 | 52 | 243 | 0.0 | 1.0 | 0.00 | 0.00 | 0.00 | 30 | 1008.5 |
| 20260504180133 | 52 | 336 | 1.0 | 6.0 | 0.00 | 0.00 | 0.00 | 30 | 1008.7 |
| 20260504174550 | 54 | 322 | 1.0 | 8.0 | 0.00 | 0.00 | 0.00 | 29 | 1008.7 |
| 20260504173058 | 54 | 9 | 2.0 | 9.0 | 0.00 | 0.00 | 0.00 | 29 | 1008.7 |
| 20260504171543 | 53 | 359 | 0.0 | 6.0 | 0.00 | 0.00 | 0.00 | 31 | 1008.9 |
| 20260504081551 | 39 | 115 | 1.0 | 2.0 | 0.00 | 0.00 | 0.00 | 40 | 1009.9 |
| 20260504044534 | 39 | 99 | 0.0 | 0.0 | 0.00 | 0.00 | 0.00 | 42 | 1011.4 |
| 20260504043034 | 40 | 98 | 0.0 | 0.0 | 0.00 | 0.00 | 0.00 | 44 | 1011.5 |
| 20260504041536 | 41 | 98 | 0.0 | 0.0 | 0.00 | 0.00 | 0.00 | 42 | 1011.4 |
| 20260504040039 | 43 | 98 | 0.0 | 0.0 | 0.00 | 0.00 | 0.00 | 38 | 1011.4 |
| 20260504034542 | 44 | 98 | 0.0 | 0.0 | 0.00 | 0.00 | 0.00 | 36 | 1011.5 |
| 20260504033034 | 44 | 98 | 0.0 | 1.0 | 0.00 | 0.00 | 0.00 | 34 | 1011.5 |
| 20260504031533 | 45 | 98 | 0.0 | 1.0 | 0.00 | 0.00 | 0.00 | 33 | 1011.4 |
| 20260504030038 | 45 | 96 | 0.0 | 1.0 | 0.00 | 0.00 | 0.00 | 32 | 1011.4 |
| 20260504024540 | 45 | 91 | 0.0 | 1.0 | 0.00 | 0.00 | 0.00 | 31 | 1011.3 |
| 20260504023033 | 46 | 37 | 0.0 | 0.0 | 0.00 | 0.00 | 0.00 | 32 | 1011.3 |
| 20260504021534 | 48 | 340 | 0.0 | 0.0 | 0.00 | 0.00 | 0.00 | 32 | 1011.2 |
| 20260504020035 | 49 | 340 | 0.0 | 0.0 | 0.00 | 0.00 | 0.00 | 29 | 1011.1 |
| 20260504014532 | 51 | 338 | 0.0 | 0.0 | 0.00 | 0.00 | 0.00 | 29 | 1011.2 |
| 20260504013031 | 52 | 25 | 0.0 | 3.0 | 0.00 | 0.00 | 0.00 | 24 | 1011.2 |
| 20260504011531 | 53 | 343 | 0.0 | 1.0 | 0.00 | 0.00 | 0.00 | 25 | 1011.2 |
| 20260504010029 | 54 | 6 | 0.0 | 2.0 | 0.00 | 0.00 | 0.00 | 25 | 1011.3 |
| 20260504004528 | 55 | 236 | 0.0 | 0.0 | 0.00 | 0.00 | 0.00 | 24 | 1011.4 |
| 20260504003025 | 57 | 300 | 0.0 | 1.0 | 0.00 | 0.00 | 0.00 | 24 | 1011.5 |
| 20260504001524 | 58 | 106 | 0.0 | 3.0 | 0.00 | 0.00 | 0.00 | 20 | 1011.6 |
| 20260504000024 | 58 | 295 | 1.0 | 3.0 | 0.00 | 0.00 | 0.00 | 22 | 1011.5 |
| 20260503234526 | 56 | 344 | 2.0 | 7.0 | 0.00 | 0.00 | 0.00 | 22 | 1011.7 |
| 20260503233021 | 57 | 323 | 2.0 | 4.0 | 0.00 | 0.00 | 0.00 | 23 | 1011.8 |
| 20260503231521 | 57 | 307 | 0.0 | 4.0 | 0.00 | 0.00 | 0.00 | 25 | 1011.8 |
| 20260503230020 | 57 | 359 | 1.0 | 5.0 | 0.00 | 0.00 | 0.00 | 19 | 1011.8 |
| 20260503224519 | 58 | 341 | 1.0 | 5.0 | 0.00 | 0.00 | 0.00 | 22 | 1012.1 |
| 20260503223023 | 57 | 323 | 0.0 | 6.0 | 0.00 | 0.00 | 0.00 | 19 | 1012.0 |
| 20260503221516 | 56 | 358 | 0.0 | 10.0 | 0.00 | 0.00 | 0.00 | 20 | 1012.3 |
| 20260503220017 | 57 | 343 | 3.0 | 9.0 | 0.00 | 0.00 | 0.00 | 19 | 1012.6 |
| 20260503214513 | 57 | 321 | 0.0 | 3.0 | 0.00 | 0.00 | 0.00 | 21 | 1012.9 |
| 20260503213010 | 58 | 148 | 0.0 | 5.0 | 0.00 | 0.00 | 0.00 | 21 | 1013.1 |
| 20260503211517 | 57 | 332 | 3.0 | 10.0 | 0.00 | 0.00 | 0.00 | 18 | 1013.2 |
| 20260503210016 | 56 | 333 | 1.0 | 6.0 | 0.00 | 0.00 | 0.00 | 21 | 1013.4 |
| 20260503204506 | 57 | 308 | 5.0 | 10.0 | 0.00 | 0.00 | 0.00 | 18 | 1013.4 |
| 20260503203012 | 58 | 332 | 2.0 | 6.0 | 0.00 | 0.00 | 0.00 | 16 | 1013.6 |